Time;durP1;ratioP1;P1;durP2;ratioP2;P2;SDS_P1;SDS_P2;PMS_P1;PMS_P2;Temp;Humidity;BMP_temperature;BMP_pressure;BME280_temperature;BME280_humidity;BME280_pressure;Samples;Min_cycle;Max_cycle;Signal;HPM_P1;HPM_P2
2021/11/17 02:25:58;;;;;;;;;;;13.30;91.60;;;;;;2071650;28;852;-57
2021/11/17 02:27:22;;;;;;;;;;;13.20;91.50;;;;;;2071236;28;1977;-57
2021/11/17 02:28:57;;;;;;;;;;;13.20;91.90;;;;;;2071873;28;979;-58
2021/11/17 02:30:23;;;;;;;;;;;13.20;92.00;;;;;;2080108;28;1636;-57
2021/11/17 02:31:57;;;;;;;;;;;13.20;91.60;;;;;;2078471;28;850;-58
2021/11/17 02:33:17;;;;;;;;;;;13.20;91.60;;;;;;2072116;28;804;-58
2021/11/17 02:34:51;;;;;;;;;;;13.20;91.50;;;;;;2079359;28;772;-58
2021/11/17 02:36:22;;;;;;;;;;;13.20;91.60;;;;;;2081867;28;952;-58
2021/11/17 02:37:41;;;;;;;;;;;13.20;91.60;;;;;;2083850;28;1757;-58
2021/11/17 02:39:08;;;;;;;;;;;13.20;91.50;;;;;;2082547;28;1512;-59
2021/11/17 02:40:36;;;;;;;;;;;13.20;91.60;;;;;;2085080;28;1408;-59
2021/11/17 02:42:15;;;;;;;;;;;13.20;91.60;;;;;;2078837;28;1474;-58
2021/11/17 02:43:40;;;;;;;;;;;13.20;91.70;;;;;;2093309;28;1349;-58
2021/11/17 02:45:00;;;;;;;;;;;13.20;92.00;;;;;;2097322;28;774;-55
2021/11/17 02:46:38;;;;;;;;;;;13.20;91.60;;;;;;2096797;28;740;-57
2021/11/17 02:48:29;;;;;;;;;;;13.20;91.70;;;;;;2097068;28;1098;-58
2021/11/17 02:50:00;;;;;;;;;;;13.20;91.70;;;;;;2060142;28;1739;-56
2021/11/17 02:51:28;;;;;;;;;;;13.20;91.70;;;;;;2085917;28;1523;-59
2021/11/17 02:52:47;;;;;;;;;;;13.20;91.60;;;;;;2081099;28;767;-59
2021/11/17 02:54:15;;;;;;;;;;;13.30;91.50;;;;;;2080467;28;1405;-57
2021/11/17 02:55:37;;;;;;;;;;;13.40;91.20;;;;;;2080702;28;863;-56
2021/11/17 02:57:12;;;;;;;;;;;13.40;90.90;;;;;;2080415;28;935;-58
2021/11/17 02:58:37;;;;;;;;;;;13.50;90.40;;;;;;2079192;28;770;-59
2021/11/17 03:00:15;;;;;;;;;;;13.60;90.00;;;;;;2085710;28;1897;-59
2021/11/17 03:01:38;;;;;;;;;;;13.70;89.90;;;;;;2089099;28;761;-58
2021/11/17 03:03:21;;;;;;;;;;;13.80;88.10;;;;;;2089061;28;766;-58
2021/11/17 03:04:58;;;;;;;;;;;13.90;87.40;;;;;;2063743;28;1201;-58
2021/11/17 03:06:24;;;;;;;;;;;13.90;87.30;;;;;;2086365;28;1218;-58
2021/11/17 03:07:58;;;;;;;;;;;14.00;86.20;;;;;;2090330;28;1968;-59
2021/11/17 03:09:36;;;;;;;;;;;14.00;85.80;;;;;;2087249;28;1363;-56
2021/11/17 03:11:11;;;;;;;;;;;14.00;85.50;;;;;;2089021;28;740;-57
2021/11/17 03:12:37;;;;;;;;;;;14.00;85.40;;;;;;2089260;28;728;-57
2021/11/17 03:14:06;;;;;;;;;;;14.00;85.30;;;;;;2086692;28;1796;-58
2021/11/17 03:15:31;;;;;;;;;;;14.00;85.30;;;;;;2096478;28;808;-56
2021/11/17 03:16:53;;;;;;;;;;;14.00;85.30;;;;;;2090875;28;972;-57
2021/11/17 03:18:12;;;;;;;;;;;14.00;85.30;;;;;;2088117;28;748;-58
2021/11/17 03:19:32;;;;;;;;;;;14.00;85.40;;;;;;2082101;28;1879;-58
2021/11/17 03:20:58;;;;;;;;;;;14.00;85.60;;;;;;2082627;28;751;-56
2021/11/17 03:22:17;;;;;;;;;;;14.00;85.60;;;;;;2090391;28;788;-59
2021/11/17 03:23:42;;;;;;;;;;;13.90;85.70;;;;;;2074907;28;1267;-56
2021/11/17 03:25:13;;;;;;;;;;;13.90;85.80;;;;;;2073111;28;763;-59
2021/11/17 03:26:35;;;;;;;;;;;13.90;86.00;;;;;;2087729;28;773;-58
2021/11/17 03:28:01;;;;;;;;;;;13.90;86.10;;;;;;2091141;28;1942;-56
2021/11/17 03:29:36;;;;;;;;;;;13.90;86.20;;;;;;2082587;28;1786;-59
2021/11/17 03:31:14;;;;;;;;;;;13.90;86.30;;;;;;2082630;28;778;-59
2021/11/17 03:32:57;;;;;;;;;;;13.90;86.40;;;;;;2082106;28;889;-59
2021/11/17 03:34:19;;;;;;;;;;;13.90;86.50;;;;;;2081827;28;1996;-59
2021/11/17 03:35:47;;;;;;;;;;;13.90;86.60;;;;;;2093310;28;1022;-58
2021/11/17 03:37:23;;;;;;;;;;;13.90;87.30;;;;;;2082563;28;948;-59
2021/11/17 03:38:42;;;;;;;;;;;13.90;86.80;;;;;;2088489;28;916;-58
2021/11/17 03:40:20;;;;;;;;;;;13.90;86.80;;;;;;2078800;28;733;-59
2021/11/17 03:41:59;;;;;;;;;;;13.90;87.00;;;;;;2082109;28;781;-59
2021/11/17 03:43:37;;;;;;;;;;;13.80;87.10;;;;;;2082118;28;761;-59
2021/11/17 03:45:12;;;;;;;;;;;13.80;87.30;;;;;;2082013;28;763;-59
2021/11/17 03:46:49;;;;;;;;;;;13.80;87.40;;;;;;2081713;28;766;-58
2021/11/17 03:48:09;;;;;;;;;;;13.80;87.40;;;;;;2078641;28;744;-56
2021/11/17 03:49:44;;;;;;;;;;;13.80;88.30;;;;;;2093349;28;1434;-59
2021/11/17 03:51:03;;;;;;;;;;;13.80;87.70;;;;;;2088011;28;783;-58
2021/11/17 03:52:31;;;;;;;;;;;13.80;87.80;;;;;;2098235;28;853;-59
2021/11/17 03:53:57;;;;;;;;;;;13.80;88.00;;;;;;2083366;28;1393;-58
2021/11/17 03:55:35;;;;;;;;;;;13.80;88.80;;;;;;2083883;28;1506;-59
2021/11/17 03:56:54;;;;;;;;;;;13.80;88.10;;;;;;2081593;28;730;-56
2021/11/17 03:58:13;;;;;;;;;;;13.80;88.40;;;;;;2081615;28;724;-58
2021/11/17 03:59:45;;;;;;;;;;;13.70;88.30;;;;;;2097586;28;1532;-56
2021/11/17 04:01:22;;;;;;;;;;;13.70;88.50;;;;;;2081211;28;825;-61
2021/11/17 04:02:48;;;;;;;;;;;13.80;89.40;;;;;;2089133;28;754;-60
2021/11/17 04:04:10;;;;;;;;;;;13.80;88.60;;;;;;2090081;28;1412;-58
2021/11/17 04:05:29;;;;;;;;;;;13.70;88.70;;;;;;2099439;28;1436;-61
2021/11/17 04:06:52;;;;;;;;;;;13.70;89.10;;;;;;2093701;28;1250;-60
2021/11/17 04:08:41;;;;;;;;;;;13.80;89.60;;;;;;2089653;28;750;-60
2021/11/17 04:10:19;;;;;;;;;;;13.70;90.20;;;;;;2079924;28;1132;-59
2021/11/17 04:11:38;;;;;;;;;;;13.70;90.50;;;;;;2081966;28;764;-59
2021/11/17 04:13:16;;;;;;;;;;;13.70;90.50;;;;;;2082182;28;778;-59
2021/11/17 04:14:58;;;;;;;;;;;13.70;90.70;;;;;;2086493;28;1457;-59
2021/11/17 04:16:30;;;;;;;;;;;13.70;90.90;;;;;;2089062;28;1444;-58
2021/11/17 04:17:55;;;;;;;;;;;13.70;91.10;;;;;;2089932;28;801;-57
2021/11/17 04:19:17;;;;;;;;;;;13.70;91.40;;;;;;2089411;28;1864;-59
2021/11/17 04:20:46;;;;;;;;;;;13.80;91.50;;;;;;2090268;28;1041;-57
2021/11/17 04:22:12;;;;;;;;;;;13.90;91.90;;;;;;2090153;28;769;-58
2021/11/17 04:23:51;;;;;;;;;;;13.90;92.00;;;;;;2081669;28;1577;-59
2021/11/17 04:25:13;;;;;;;;;;;14.00;91.70;;;;;;2088032;28;1689;-58
2021/11/17 04:26:35;;;;;;;;;;;14.10;91.50;;;;;;2089909;28;729;-61
2021/11/17 04:28:17;;;;;;;;;;;14.20;91.20;;;;;;2097307;28;1902;-59
2021/11/17 04:29:45;;;;;;;;;;;14.30;90.90;;;;;;2084596;28;1932;-59
2021/11/17 04:31:11;;;;;;;;;;;14.40;90.50;;;;;;2087169;28;2413;-59
2021/11/17 04:32:48;;;;;;;;;;;14.50;90.30;;;;;;2089568;28;1096;-57
2021/11/17 04:34:26;;;;;;;;;;;14.60;89.80;;;;;;2088724;28;1447;-59
2021/11/17 04:35:46;;;;;;;;;;;14.70;88.60;;;;;;2089840;28;1062;-59
2021/11/17 04:37:08;;;;;;;;;;;14.70;87.20;;;;;;2090282;28;877;-59
2021/11/17 04:38:37;;;;;;;;;;;14.80;87.20;;;;;;2088455;28;1360;-59
2021/11/17 04:39:59;;;;;;;;;;;14.80;85.90;;;;;;2082761;28;1502;-57
2021/11/17 04:41:34;;;;;;;;;;;14.80;85.40;;;;;;2084524;28;1501;-55
2021/11/17 04:43:00;;;;;;;;;;;14.90;85.20;;;;;;2095152;28;1166;-56
2021/11/17 04:44:37;;;;;;;;;;;14.90;84.80;;;;;;2089989;28;1504;-55
2021/11/17 04:45:59;;;;;;;;;;;14.90;84.60;;;;;;2084098;28;1326;-57
2021/11/17 04:47:37;;;;;;;;;;;14.90;85.00;;;;;;2082930;28;1910;-58
2021/11/17 04:49:12;;;;;;;;;;;15.00;85.40;;;;;;2082842;28;1283;-58
2021/11/17 04:50:50;;;;;;;;;;;15.00;84.70;;;;;;2083661;28;1171;-58
2021/11/17 04:52:18;;;;;;;;;;;15.00;85.00;;;;;;2092356;28;899;-58
2021/11/17 04:53:43;;;;;;;;;;;15.00;84.50;;;;;;2088840;28;1372;-56
2021/11/17 04:55:08;;;;;;;;;;;14.90;84.40;;;;;;2099352;28;1446;-58
2021/11/17 04:56:46;;;;;;;;;;;14.90;84.70;;;;;;2091533;28;1260;-58
2021/11/17 04:58:25;;;;;;;;;;;14.80;84.90;;;;;;2089821;28;1552;-57
2021/11/17 04:59:59;;;;;;;;;;;14.80;85.40;;;;;;2084866;28;1712;-55
2021/11/17 05:01:34;;;;;;;;;;;14.80;85.70;;;;;;2082960;28;1163;-56
2021/11/17 05:02:53;;;;;;;;;;;14.70;86.70;;;;;;2082627;28;1186;-58
2021/11/17 05:04:50;;;;;;;;;;;14.70;86.20;;;;;;2092828;28;1483;-56
2021/11/17 05:06:09;;;;;;;;;;;14.70;86.40;;;;;;2088119;28;1653;-58
2021/11/17 05:07:31;;;;;;;;;;;14.70;86.70;;;;;;2091158;28;1898;-58
2021/11/17 05:08:50;;;;;;;;;;;14.60;86.80;;;;;;2090683;28;1211;-57
2021/11/17 05:10:09;;;;;;;;;;;14.60;86.90;;;;;;2088709;28;1066;-59
2021/11/17 05:11:43;;;;;;;;;;;14.60;87.80;;;;;;2090103;28;1349;-58
2021/11/17 05:13:02;;;;;;;;;;;14.60;87.30;;;;;;2069087;28;1907;-57
2021/11/17 05:14:21;;;;;;;;;;;14.60;87.60;;;;;;2081624;28;1287;-57
2021/11/17 05:15:50;;;;;;;;;;;14.60;87.70;;;;;;2087833;28;1541;-56
2021/11/17 05:17:27;;;;;;;;;;;14.50;87.90;;;;;;2091033;28;1179;-56
2021/11/17 05:18:56;;;;;;;;;;;14.50;88.10;;;;;;2090541;28;1631;-56
2021/11/17 05:20:30;;;;;;;;;;;14.50;88.20;;;;;;2077031;28;1226;-55
2021/11/17 05:21:52;;;;;;;;;;;14.50;88.40;;;;;;2082223;28;1159;-55
2021/11/17 05:23:31;;;;;;;;;;;14.50;88.70;;;;;;2086152;28;1121;-56
2021/11/17 05:24:53;;;;;;;;;;;14.40;89.30;;;;;;2075267;28;1253;-58
2021/11/17 05:26:15;;;;;;;;;;;14.40;88.80;;;;;;2083424;28;1216;-55
2021/11/17 05:27:47;;;;;;;;;;;14.40;89.00;;;;;;2079102;28;1913;-57
2021/11/17 05:29:12;;;;;;;;;;;14.40;89.30;;;;;;2079090;28;1201;-58
2021/11/17 05:30:43;;;;;;;;;;;14.40;89.50;;;;;;2085408;28;1204;-55
2021/11/17 05:32:20;;;;;;;;;;;14.40;89.60;;;;;;2090530;28;1334;-58
2021/11/17 05:33:46;;;;;;;;;;;14.30;90.10;;;;;;2084547;28;1480;-55
2021/11/17 05:35:06;;;;;;;;;;;14.30;89.90;;;;;;2078668;28;1242;-54
2021/11/17 05:36:44;;;;;;;;;;;14.40;90.70;;;;;;2086560;28;1309;-57
2021/11/17 05:38:16;;;;;;;;;;;14.40;90.80;;;;;;2088906;28;1330;-53
2021/11/17 05:39:35;;;;;;;;;;;14.60;92.00;;;;;;2088830;28;1506;-57
2021/11/17 05:41:00;;;;;;;;;;;14.60;91.30;;;;;;2082681;28;787;-55
2021/11/17 05:42:23;;;;;;;;;;;14.50;90.70;;;;;;2089943;28;1305;-55
2021/11/17 05:43:43;;;;;;;;;;;14.50;90.50;;;;;;2095868;28;1638;-57
2021/11/17 05:45:11;;;;;;;;;;;14.40;90.40;;;;;;2087349;28;1453;-54
2021/11/17 05:46:30;;;;;;;;;;;14.40;90.50;;;;;;2086841;28;1087;-55
2021/11/17 05:47:59;;;;;;;;;;;14.40;90.60;;;;;;2091882;28;1914;-54
2021/11/17 05:49:24;;;;;;;;;;;14.30;90.70;;;;;;2079717;28;1274;-54
2021/11/17 05:51:02;;;;;;;;;;;14.30;90.80;;;;;;2087654;28;1336;-55
2021/11/17 05:52:30;;;;;;;;;;;14.30;90.80;;;;;;2091679;28;1142;-57
2021/11/17 05:54:08;;;;;;;;;;;14.30;91.30;;;;;;2090893;28;1387;-57
2021/11/17 05:55:27;;;;;;;;;;;14.30;91.00;;;;;;2081136;28;1002;-55
2021/11/17 05:57:03;;;;;;;;;;;14.30;91.00;;;;;;2088979;28;1576;-54
2021/11/17 05:58:25;;;;;;;;;;;14.20;91.00;;;;;;2082179;28;1320;-54
2021/11/17 05:59:47;;;;;;;;;;;14.30;91.20;;;;;;2080970;28;1338;-55
2021/11/17 06:01:07;;;;;;;;;;;14.20;91.10;;;;;;2087410;28;1229;-55
2021/11/17 06:03:02;;;;;;;;;;;14.20;91.20;;;;;;2094852;28;1331;-56
2021/11/17 06:04:21;;;;;;;;;;;14.20;91.30;;;;;;2073996;28;1569;-55
2021/11/17 06:05:39;;;;;;;;;;;14.20;91.40;;;;;;2064099;28;1430;-56
2021/11/17 06:06:59;;;;;;;;;;;14.20;91.50;;;;;;2082356;28;1739;-56
2021/11/17 06:08:18;;;;;;;;;;;14.20;91.70;;;;;;2090336;28;1227;-57
2021/11/17 06:09:37;;;;;;;;;;;14.20;91.80;;;;;;2082793;28;1391;-57
2021/11/17 06:10:58;;;;;;;;;;;14.20;91.80;;;;;;2081301;28;1349;-56
2021/11/17 06:12:17;;;;;;;;;;;14.20;92.30;;;;;;2084687;28;1597;-55
2021/11/17 06:13:36;;;;;;;;;;;14.20;92.10;;;;;;2092897;28;1620;-58
2021/11/17 06:14:57;;;;;;;;;;;14.20;92.50;;;;;;2088258;28;1242;-59
2021/11/17 06:16:16;;;;;;;;;;;14.10;92.70;;;;;;2080009;28;1596;-56
2021/11/17 06:17:35;;;;;;;;;;;14.10;93.10;;;;;;2090973;28;1139;-57
2021/11/17 06:18:55;;;;;;;;;;;14.10;93.00;;;;;;2095999;28;1095;-58
2021/11/17 06:20:15;;;;;;;;;;;14.10;93.60;;;;;;2092383;28;1261;-57
2021/11/17 06:21:34;;;;;;;;;;;14.10;93.50;;;;;;2070789;28;1690;-58
2021/11/17 06:23:04;;;;;;;;;;;14.10;93.60;;;;;;2076588;28;1321;-57
2021/11/17 06:24:24;;;;;;;;;;;14.10;93.80;;;;;;2088959;28;1421;-57
2021/11/17 06:25:42;;;;;;;;;;;14.10;94.50;;;;;;2078576;28;970;-58
2021/11/17 06:27:06;;;;;;;;;;;14.10;94.40;;;;;;2083876;28;1187;-55
2021/11/17 06:28:28;;;;;;;;;;;14.10;94.80;;;;;;2088948;28;1125;-57
2021/11/17 06:29:48;;;;;;;;;;;14.10;95.00;;;;;;2088538;28;1398;-61
2021/11/17 06:31:06;;;;;;;;;;;14.00;95.20;;;;;;2078075;28;1446;-54
2021/11/17 06:32:26;;;;;;;;;;;14.00;95.40;;;;;;2079906;28;1321;-58
2021/11/17 06:33:45;;;;;;;;;;;14.00;96.00;;;;;;2087469;28;1387;-56
2021/11/17 06:35:05;;;;;;;;;;;14.00;95.60;;;;;;2093272;28;981;-54
2021/11/17 06:36:24;;;;;;;;;;;14.00;95.50;;;;;;2080220;28;1208;-58
2021/11/17 06:37:44;;;;;;;;;;;14.00;96.00;;;;;;2079153;28;1142;-55
2021/11/17 06:39:03;;;;;;;;;;;14.00;96.30;;;;;;2085246;28;1424;-57
2021/11/17 06:40:22;;;;;;;;;;;14.10;96.40;;;;;;2089211;28;1283;-59
2021/11/17 06:41:41;;;;;;;;;;;14.10;96.90;;;;;;2082993;28;1156;-57
2021/11/17 06:43:01;;;;;;;;;;;14.10;96.90;;;;;;2096812;28;1452;-55
2021/11/17 06:44:23;;;;;;;;;;;14.10;97.10;;;;;;2089952;28;1476;-60
2021/11/17 06:45:42;;;;;;;;;;;14.00;97.10;;;;;;2071218;28;996;-58
2021/11/17 06:47:02;;;;;;;;;;;14.00;96.60;;;;;;2082610;28;1247;-59
2021/11/17 06:48:21;;;;;;;;;;;14.00;96.40;;;;;;2078629;28;955;-59
2021/11/17 06:49:40;;;;;;;;;;;14.00;96.00;;;;;;2068369;28;1455;-57
2021/11/17 06:51:00;;;;;;;;;;;14.00;96.00;;;;;;2068292;28;851;-58
2021/11/17 06:52:22;;;;;;;;;;;14.00;95.90;;;;;;2081089;28;946;-60
2021/11/17 06:53:41;;;;;;;;;;;14.00;95.90;;;;;;2088521;28;1474;-58
2021/11/17 06:55:00;;;;;;;;;;;14.00;95.80;;;;;;2087632;28;1013;-54
2021/11/17 06:56:21;;;;;;;;;;;13.90;95.90;;;;;;2087357;28;1020;-58
2021/11/17 06:57:40;;;;;;;;;;;13.90;95.90;;;;;;2091131;28;974;-61
2021/11/17 06:58:59;;;;;;;;;;;13.90;95.90;;;;;;2079708;28;1039;-60
2021/11/17 07:00:19;;;;;;;;;;;13.90;96.00;;;;;;2084271;28;1203;-59
2021/11/17 07:01:38;;;;;;;;;;;13.90;96.20;;;;;;2082288;28;923;-58
2021/11/17 07:02:57;;;;;;;;;;;13.90;95.90;;;;;;2085031;28;1349;-58
2021/11/17 07:04:17;;;;;;;;;;;13.90;95.80;;;;;;2090314;28;1314;-55
2021/11/17 07:05:36;;;;;;;;;;;13.90;95.90;;;;;;2088635;28;1405;-57
2021/11/17 07:06:55;;;;;;;;;;;13.90;95.80;;;;;;2069278;28;1243;-54
2021/11/17 07:08:14;;;;;;;;;;;13.90;95.90;;;;;;2083467;28;1381;-58
2021/11/17 07:09:34;;;;;;;;;;;13.80;95.80;;;;;;2080510;28;1569;-57
2021/11/17 07:10:53;;;;;;;;;;;13.90;95.80;;;;;;2084102;28;2162;-58
2021/11/17 07:12:12;;;;;;;;;;;13.80;95.90;;;;;;2080078;28;1371;-60
2021/11/17 07:13:31;;;;;;;;;;;13.80;95.80;;;;;;2084439;28;1171;-58
2021/11/17 07:14:51;;;;;;;;;;;13.80;95.90;;;;;;2087592;28;1541;-60
2021/11/17 07:16:10;;;;;;;;;;;13.80;95.80;;;;;;2091477;28;1091;-55
2021/11/17 07:17:29;;;;;;;;;;;13.80;95.80;;;;;;2086919;28;1104;-55
2021/11/17 07:18:48;;;;;;;;;;;13.80;95.90;;;;;;2088263;28;1057;-58
2021/11/17 07:20:08;;;;;;;;;;;13.80;95.80;;;;;;2089341;28;1340;-56
2021/11/17 07:21:27;;;;;;;;;;;13.80;95.70;;;;;;2089175;28;1198;-55
2021/11/17 07:22:47;;;;;;;;;;;13.80;95.80;;;;;;2074100;28;1118;-56
2021/11/17 07:24:06;;;;;;;;;;;13.80;95.90;;;;;;2081886;28;1752;-55
2021/11/17 07:25:26;;;;;;;;;;;13.80;95.80;;;;;;2088387;28;999;-59
2021/11/17 07:26:45;;;;;;;;;;;13.80;95.70;;;;;;2091995;28;1348;-58
2021/11/17 07:28:04;;;;;;;;;;;13.80;95.70;;;;;;2090187;28;1906;-58
2021/11/17 07:29:23;;;;;;;;;;;13.80;95.90;;;;;;2088285;28;822;-57
2021/11/17 07:30:43;;;;;;;;;;;13.80;95.80;;;;;;2082246;28;1315;-58
2021/11/17 07:32:02;;;;;;;;;;;13.80;95.70;;;;;;2085943;28;1164;-60
2021/11/17 07:33:21;;;;;;;;;;;13.80;95.80;;;;;;2088866;28;1760;-55
2021/11/17 07:34:40;;;;;;;;;;;13.80;95.80;;;;;;2079437;28;1435;-58
2021/11/17 07:35:59;;;;;;;;;;;13.80;96.20;;;;;;2085195;28;1423;-56
2021/11/17 07:37:18;;;;;;;;;;;13.80;96.10;;;;;;2091743;28;960;-57
2021/11/17 07:38:38;;;;;;;;;;;13.70;95.80;;;;;;2089493;28;950;-58
2021/11/17 07:39:57;;;;;;;;;;;13.70;95.80;;;;;;2081893;28;2171;-59
2021/11/17 07:41:16;;;;;;;;;;;13.70;95.70;;;;;;2087091;28;804;-57
2021/11/17 07:42:35;;;;;;;;;;;13.70;95.80;;;;;;2096646;28;854;-60
2021/11/17 07:43:55;;;;;;;;;;;13.70;95.70;;;;;;2095325;28;1391;-58
2021/11/17 07:45:15;;;;;;;;;;;13.70;95.80;;;;;;2091442;28;1376;-58
2021/11/17 07:46:34;;;;;;;;;;;13.70;95.80;;;;;;2079122;28;950;-60
2021/11/17 07:47:54;;;;;;;;;;;13.70;95.80;;;;;;2087602;28;1973;-57
2021/11/17 07:49:13;;;;;;;;;;;13.70;95.90;;;;;;2082367;28;921;-60
2021/11/17 07:50:33;;;;;;;;;;;13.70;95.90;;;;;;2095501;28;1382;-58
2021/11/17 07:51:52;;;;;;;;;;;13.70;95.80;;;;;;2089873;28;1139;-56
2021/11/17 07:53:11;;;;;;;;;;;13.70;95.80;;;;;;2089117;28;870;-58
2021/11/17 07:54:30;;;;;;;;;;;13.70;95.90;;;;;;2088497;28;1454;-58
2021/11/17 07:55:50;;;;;;;;;;;13.70;95.90;;;;;;2092338;28;1368;-59
2021/11/17 07:57:09;;;;;;;;;;;13.70;95.80;;;;;;2083625;28;1297;-60
2021/11/17 07:58:31;;;;;;;;;;;13.70;95.80;;;;;;2076402;28;1143;-60
2021/11/17 07:59:50;;;;;;;;;;;13.70;96.00;;;;;;2075266;28;1126;-59
2021/11/17 08:01:10;;;;;;;;;;;13.70;95.90;;;;;;2077275;28;1369;-57
2021/11/17 08:02:29;;;;;;;;;;;13.70;95.70;;;;;;2077280;28;1325;-61
2021/11/17 08:03:48;;;;;;;;;;;13.60;95.80;;;;;;2079527;28;1363;-58
2021/11/17 08:05:07;;;;;;;;;;;13.60;96.70;;;;;;2078172;28;1186;-59
2021/11/17 08:06:27;;;;;;;;;;;13.60;97.20;;;;;;2077496;28;1252;-58
2021/11/17 08:07:46;;;;;;;;;;;13.60;97.30;;;;;;2082230;28;2043;-59
2021/11/17 08:09:05;;;;;;;;;;;13.60;98.00;;;;;;2086691;28;1107;-61
2021/11/17 08:10:28;;;;;;;;;;;13.60;97.80;;;;;;2083058;28;1194;-57
2021/11/17 08:11:47;;;;;;;;;;;13.60;98.00;;;;;;2089234;28;1331;-55
2021/11/17 08:13:06;;;;;;;;;;;13.60;98.40;;;;;;2091258;28;1157;-58
2021/11/17 08:14:25;;;;;;;;;;;13.60;98.40;;;;;;2089600;28;1479;-60
2021/11/17 08:15:45;;;;;;;;;;;13.60;99.10;;;;;;2081466;28;1179;-60
2021/11/17 08:17:04;;;;;;;;;;;13.60;99.20;;;;;;2087007;28;1192;-59
2021/11/17 08:18:23;;;;;;;;;;;13.60;99.10;;;;;;2081468;28;1428;-57
2021/11/17 08:19:42;;;;;;;;;;;13.60;99.20;;;;;;2087084;28;1569;-61
2021/11/17 08:21:02;;;;;;;;;;;13.60;99.30;;;;;;2092458;28;1440;-57
2021/11/17 08:22:22;;;;;;;;;;;13.60;99.40;;;;;;2082223;28;944;-59
2021/11/17 08:23:41;;;;;;;;;;;13.60;99.70;;;;;;2086780;28;1470;-61
2021/11/17 08:25:00;;;;;;;;;;;13.60;99.90;;;;;;2081657;28;1221;-58
2021/11/17 08:26:21;;;;;;;;;;;13.60;99.90;;;;;;2085963;28;1552;-57
2021/11/17 08:27:40;;;;;;;;;;;13.60;99.90;;;;;;2090992;28;1898;-60
2021/11/17 08:28:59;;;;;;;;;;;13.60;99.90;;;;;;2081016;28;1314;-58
2021/11/17 08:30:19;;;;;;;;;;;13.60;99.90;;;;;;2069739;28;1592;-59
2021/11/17 08:31:38;;;;;;;;;;;13.60;99.90;;;;;;2092302;28;1357;-59
2021/11/17 08:32:58;;;;;;;;;;;13.60;99.90;;;;;;2097431;28;1336;-60
2021/11/17 08:34:17;;;;;;;;;;;13.60;99.90;;;;;;2084680;28;1290;-61
2021/11/17 08:35:36;;;;;;;;;;;13.60;99.90;;;;;;2080568;28;1122;-62
2021/11/17 08:36:56;;;;;;;;;;;13.60;99.90;;;;;;2085309;28;1389;-60
2021/11/17 08:38:17;;;;;;;;;;;13.50;99.90;;;;;;2082970;28;1213;-59
2021/11/17 08:39:36;;;;;;;;;;;13.50;99.90;;;;;;2079494;28;1385;-61
2021/11/17 08:40:58;;;;;;;;;;;13.50;99.90;;;;;;2088173;28;1284;-62
2021/11/17 08:42:17;;;;;;;;;;;13.50;99.90;;;;;;2072503;28;946;-60
2021/11/17 08:43:37;;;;;;;;;;;13.50;99.90;;;;;;2084132;28;1490;-61
2021/11/17 08:44:56;;;;;;;;;;;13.50;99.90;;;;;;2091635;28;1199;-60
2021/11/17 08:46:15;;;;;;;;;;;13.50;99.70;;;;;;2090672;28;1284;-55
2021/11/17 08:47:34;;;;;;;;;;;13.50;99.70;;;;;;2075363;28;1914;-62
2021/11/17 08:48:56;;;;;;;;;;;13.50;99.30;;;;;;2084543;28;1201;-59
2021/11/17 08:50:16;;;;;;;;;;;13.50;99.10;;;;;;2091178;28;1771;-55
2021/11/17 08:51:35;;;;;;;;;;;13.50;99.10;;;;;;2082071;28;1203;-62
2021/11/17 08:52:55;;;;;;;;;;;13.50;99.00;;;;;;2088456;28;1116;-57
2021/11/17 08:54:14;;;;;;;;;;;13.50;98.90;;;;;;2091004;28;1500;-61
2021/11/17 08:55:33;;;;;;;;;;;13.50;99.10;;;;;;2090510;28;1153;-59
2021/11/17 08:56:53;;;;;;;;;;;13.50;99.00;;;;;;2081278;28;1028;-58
2021/11/17 08:58:12;;;;;;;;;;;13.50;99.00;;;;;;2094385;28;819;-59
2021/11/17 08:59:32;;;;;;;;;;;13.50;98.70;;;;;;2088898;28;795;-58
2021/11/17 09:00:51;;;;;;;;;;;13.50;98.80;;;;;;2095068;28;738;-59
2021/11/17 09:02:10;;;;;;;;;;;13.50;99.10;;;;;;2089519;28;768;-56
2021/11/17 09:03:29;;;;;;;;;;;13.50;99.10;;;;;;2078906;28;1561;-58
2021/11/17 09:04:49;;;;;;;;;;;13.50;98.70;;;;;;2082500;28;1589;-61
2021/11/17 09:06:08;;;;;;;;;;;13.50;98.70;;;;;;2096215;28;897;-57
2021/11/17 09:07:28;;;;;;;;;;;13.40;98.70;;;;;;2090199;28;1968;-57
2021/11/17 09:08:47;;;;;;;;;;;13.50;98.70;;;;;;2097601;28;750;-59
2021/11/17 09:10:07;;;;;;;;;;;13.50;98.70;;;;;;2098269;28;770;-55
2021/11/17 09:11:26;;;;;;;;;;;13.50;98.80;;;;;;2089266;28;725;-61
2021/11/17 09:12:46;;;;;;;;;;;13.40;98.60;;;;;;2082318;28;1516;-59
2021/11/17 09:14:05;;;;;;;;;;;13.50;98.50;;;;;;2077978;28;1338;-57
2021/11/17 09:15:26;;;;;;;;;;;13.50;98.60;;;;;;2088820;28;1489;-56
2021/11/17 09:16:45;;;;;;;;;;;13.40;98.40;;;;;;2097031;28;759;-62
2021/11/17 09:18:04;;;;;;;;;;;13.40;98.50;;;;;;2083487;28;742;-59
2021/11/17 09:19:24;;;;;;;;;;;13.40;98.70;;;;;;2094036;28;744;-60
2021/11/17 09:20:43;;;;;;;;;;;13.40;98.50;;;;;;2084160;28;1042;-58
2021/11/17 09:22:02;;;;;;;;;;;13.40;98.50;;;;;;2094214;28;732;-59
2021/11/17 09:23:23;;;;;;;;;;;13.40;98.40;;;;;;2083981;28;726;-56
2021/11/17 09:24:43;;;;;;;;;;;13.40;98.50;;;;;;2093412;28;1408;-61
2021/11/17 09:26:02;;;;;;;;;;;13.40;98.40;;;;;;2092440;28;762;-61
2021/11/17 09:27:21;;;;;;;;;;;13.40;98.40;;;;;;2096424;28;1975;-57
2021/11/17 09:28:41;;;;;;;;;;;13.40;98.50;;;;;;2092464;28;769;-62
2021/11/17 09:30:00;;;;;;;;;;;13.40;98.40;;;;;;2089756;28;740;-58
2021/11/17 09:31:19;;;;;;;;;;;13.40;98.30;;;;;;2091521;28;1568;-61
2021/11/17 09:32:38;;;;;;;;;;;13.40;98.70;;;;;;2083918;28;837;-58
2021/11/17 09:33:58;;;;;;;;;;;13.40;98.40;;;;;;2094389;28;1329;-58
2021/11/17 09:35:17;;;;;;;;;;;13.40;98.60;;;;;;2096138;28;1593;-60
2021/11/17 09:36:37;;;;;;;;;;;13.40;98.40;;;;;;2087992;28;1294;-59
2021/11/17 09:37:56;;;;;;;;;;;13.40;98.30;;;;;;2088079;28;743;-60
2021/11/17 09:39:15;;;;;;;;;;;13.40;98.30;;;;;;2094277;28;820;-59
2021/11/17 09:40:37;;;;;;;;;;;13.40;98.40;;;;;;2086823;28;1669;-61
2021/11/17 09:41:56;;;;;;;;;;;13.40;98.30;;;;;;2078393;28;751;-61
2021/11/17 09:43:16;;;;;;;;;;;13.40;98.30;;;;;;2096070;28;1641;-59
2021/11/17 09:44:39;;;;;;;;;;;13.40;98.30;;;;;;2092076;28;1393;-59
2021/11/17 09:45:58;;;;;;;;;;;13.40;98.30;;;;;;2089672;28;704;-59
2021/11/17 09:47:19;;;;;;;;;;;13.40;98.30;;;;;;2088860;28;1914;-60
2021/11/17 09:48:41;;;;;;;;;;;13.40;98.30;;;;;;2075019;28;743;-59
2021/11/17 09:50:10;;;;;;;;;;;13.40;98.20;;;;;;2090445;28;2062;-59
2021/11/17 09:51:31;;;;;;;;;;;13.40;98.20;;;;;;2074320;28;740;-59
2021/11/17 09:53:06;;;;;;;;;;;13.40;98.20;;;;;;2085828;28;754;-58
2021/11/17 09:54:26;;;;;;;;;;;13.40;98.20;;;;;;2073404;28;1439;-59
2021/11/17 09:55:47;;;;;;;;;;;13.40;98.20;;;;;;2069414;28;806;-61
2021/11/17 09:57:15;;;;;;;;;;;13.40;98.20;;;;;;2085735;28;859;-61
2021/11/17 09:58:35;;;;;;;;;;;13.40;98.60;;;;;;2069899;28;1883;-60
2021/11/17 10:00:10;;;;;;;;;;;13.40;98.20;;;;;;2081103;28;1600;-60
2021/11/17 10:01:31;;;;;;;;;;;13.40;98.20;;;;;;2080826;28;709;-62
2021/11/17 10:02:53;;;;;;;;;;;13.40;98.30;;;;;;2072373;28;721;-60
2021/11/17 10:04:20;;;;;;;;;;;13.40;98.60;;;;;;2078082;28;1392;-62
2021/11/17 10:13:20;;;;;;;;;;;13.30;99.90;;;;;;2089192;28;1657;-63
2021/11/17 10:15:03;;;;;;;;;;;13.30;99.80;;;;;;2080246;28;927;-57
2021/11/17 10:16:23;;;;;;;;;;;13.30;99.90;;;;;;2072041;28;748;-62
2021/11/17 10:17:45;;;;;;;;;;;13.30;99.90;;;;;;2072156;28;1642;-62
2021/11/17 10:19:25;;;;;;;;;;;13.30;99.90;;;;;;2086072;28;794;-61
2021/11/17 10:20:47;;;;;;;;;;;13.30;99.90;;;;;;2089668;28;1668;-61
2021/11/17 10:22:07;;;;;;;;;;;13.30;99.90;;;;;;2075212;28;739;-60
2021/11/17 10:23:29;;;;;;;;;;;13.30;99.90;;;;;;2072118;28;858;-60
2021/11/17 10:24:52;;;;;;;;;;;13.30;99.90;;;;;;2077597;28;761;-58
2021/11/17 10:26:13;;;;;;;;;;;13.40;99.90;;;;;;2071685;28;743;-58
2021/11/17 10:27:32;;;;;;;;;;;13.30;99.90;;;;;;2077534;28;1969;-57
2021/11/17 10:28:56;;;;;;;;;;;13.30;99.90;;;;;;2086547;28;1391;-61
2021/11/17 10:30:42;;;;;;;;;;;13.30;99.90;;;;;;2084186;28;1278;-58
2021/11/17 10:32:05;;;;;;;;;;;13.30;99.90;;;;;;2055555;28;979;-56
2021/11/17 10:33:39;;;;;;;;;;;13.30;99.90;;;;;;2059955;28;1242;-58
2021/11/17 10:35:01;;;;;;;;;;;13.30;99.90;;;;;;2091405;28;1209;-60
2021/11/17 10:36:29;;;;;;;;;;;13.30;99.90;;;;;;2083372;28;1367;-61
2021/11/17 10:38:03;;;;;;;;;;;13.30;99.90;;;;;;2079679;28;1152;-56
2021/11/17 10:39:35;;;;;;;;;;;13.30;99.90;;;;;;2085170;28;1404;-60
2021/11/17 10:40:55;;;;;;;;;;;13.30;99.90;;;;;;2080466;28;1102;-57
2021/11/17 10:42:20;;;;;;;;;;;13.30;99.90;;;;;;2079947;28;1370;-57
2021/11/17 10:43:50;;;;;;;;;;;13.30;99.90;;;;;;2080530;28;1381;-59
2021/11/17 10:45:09;;;;;;;;;;;13.30;99.90;;;;;;2087863;28;1263;-59
2021/11/17 10:46:30;;;;;;;;;;;13.30;99.90;;;;;;2079784;28;940;-57
2021/11/17 10:47:49;;;;;;;;;;;13.30;99.90;;;;;;2077152;28;1898;-60
2021/11/17 10:49:10;;;;;;;;;;;13.30;99.90;;;;;;2071093;28;1288;-60
2021/11/17 10:50:29;;;;;;;;;;;13.30;99.90;;;;;;2083039;28;1734;-58
2021/11/17 10:51:50;;;;;;;;;;;13.30;99.90;;;;;;2080774;28;1290;-59